CheckWX is a tool to help pilots better visualize weather data.  It is not intended as a substitute for an official pre-flight weather briefing.

00:47:15 UTC

CYQD TAF
The Pas Airport
The Pas, Canada
TAF CYQD 261838Z 2619/2707 21008KT P6SM SCT020 TEMPO 2620/2623 BKN020 FM262300 VRB03KT P6SM SCT015 BKN030 OVC060 TEMPO 2623/2702 P6SM -SHRA BKN015 FM270200 VRB03KT P6SM -SHRA BKN010 TEMPO 2702/2707 4SM -SHRA BR OVC006 BECMG 2705/2707 34006KT RMK FCST BASED ON AUTO OBS. NXT FCST BY 270100Z

Mar-26@
19:00 UTC

Mar-26 @ 19:00 UTC

Mar-26@
23:00 UTC

Mar-26 @ 23:00 UTC

TAF CYQD 261838Z 2619/2707 21008KT P6SM SCT020

Expired

Wind
  • 210° at 8 KTS
Cloud Levels
  • Scattered at 2,000' AGL

Mar-26@
20:00 UTC

Mar-26 @ 20:00 UTC

Mar-26@
23:00 UTC

Mar-26 @ 23:00 UTC

TEMPO 2620/2623 BKN020

Expired

Cloud Levels
  • Broken at 2,000' AGL

Mar-26@
23:00 UTC

Mar-26 @ 23:00 UTC

Mar-27@
02:00 UTC

Mar-27 @ 02:00 UTC

FM262300 VRB03KT P6SM SCT015 BKN030 OVC060

From

From Standard forecast or significant change

Wind
  • Variable at 3 KTS
Cloud Levels
  • Scattered at 1,500' AGL
  • Broken at 3,000' AGL
  • Overcast at 6,000' AGL

Mar-26@
23:00 UTC

Mar-26 @ 23:00 UTC

Mar-27@
02:00 UTC

Mar-27 @ 02:00 UTC

TEMPO 2623/2702 P6SM -SHRA BKN015

Temporary

Temporary Changes expected for less than half the time period

Conditions
Light Rain
Cloud Levels
  • Broken at 1,500' AGL

Mar-27@
02:00 UTC

Mar-27 @ 02:00 UTC

Mar-27@
05:00 UTC

Mar-27 @ 05:00 UTC

FM270200 VRB03KT P6SM -SHRA BKN010

From

From Standard forecast or significant change

Wind
  • Variable at 3 KTS
Conditions
Light Rain
Cloud Levels
  • Broken at 1,000' AGL

Mar-27@
02:00 UTC

Mar-27 @ 02:00 UTC

Mar-27@
07:00 UTC

Mar-27 @ 07:00 UTC

TEMPO 2702/2707 4SM -SHRA BR OVC006

Temporary

Temporary Changes expected for less than half the time period

Conditions
Light Rain, Mist
Cloud Levels
  • Overcast at 600' AGL

Mar-27@
05:00 UTC

Mar-27 @ 05:00 UTC

Mar-27@
07:00 UTC

Mar-27 @ 07:00 UTC

BECMG 2705/2707 34006KT RMK FCST BASED ON AUTO OBS. NXT FCST BY 270100Z

Becoming

Becoming Conditions expected by Wed, Mar 27, 2019 @ 07:00 UTC

Wind
  • 340° at 6 KTS
Conditions
Light Rain
Cloud Levels
  • Broken at 1,000' AGL